»·PEaware :: N733FU KSNA-KCRQ

N733FU :: KSNA-KCRQ

FLIGHT INFORMATION

Flight Status: Arrived
Operator: Privately registered:
United States
More flights under this callsign
Pilot: Maziyar K. (14298)
Aircraft: CESSNA 172 SKYHAWK
(C172)
More flights by this aircraft type
Origin: KSNA John Wayne-Orange Co
United States
Destination: KCRQ McClellan-Palomar
United States
More flights between these airports :: More routes between these airports
Route: V23 OCN
File this flight plan on PilotEdge
Remarks:
Altitude:
(Current/Filed)
5,000ft
Speed:
(Current/Filed)
110kts
Departed: 11-Jan-21 10:46 PM
Arrived: 11-Jan-21 11:16 PM
Distance/Time
Traveled:
44nm/0:30
Distance/Time
To Go:
Arrived

Flight Plot

Page will automatically refresh every two minutes.


Map Options




Map Legend


Flown Route
Filed Route
Departure Airport
Arrival Airport
Navaid (VOR, NDB)
Fix

Horizontal Profiles

Position Reports

Time Latitude Longitude Heading Altitude Ground
Speed
11-Jan-21 22:29 33.673301 -117.865578 207 60ft 0kts
11-Jan-21 22:38 33.673301 -117.865578 207 60ft 0kts
11-Jan-21 22:39 33.673301 -117.865578 207 60ft 0kts
11-Jan-21 22:40 33.673301 -117.865578 207 60ft 0kts
11-Jan-21 22:41 33.673301 -117.865578 207 60ft 0kts
11-Jan-21 22:42 33.673404 -117.865875 275 60ft 6kts
11-Jan-21 22:43 33.673293 -117.867623 23 60ft 7kts
11-Jan-21 22:44 33.679910 -117.863686 290 60ft 0kts
11-Jan-21 22:45 33.678788 -117.865024 206 60ft 43kts
11-Jan-21 22:46 33.655937 -117.873404 187 691ft 87kts
11-Jan-21 22:47 33.631489 -117.876595 185 1409ft 94kts
11-Jan-21 22:48 33.605252 -117.879228 185 2126ft 92kts
11-Jan-21 22:49 33.586087 -117.866746 121 2728ft 97kts
11-Jan-21 22:50 33.569836 -117.842287 139 3403ft 92kts
11-Jan-21 22:51 33.553243 -117.820877 130 4046ft 86kts
11-Jan-21 22:52 33.535032 -117.797612 130 4466ft 103kts
11-Jan-21 22:53 33.514871 -117.772046 130 4978ft 99kts
11-Jan-21 22:54 33.493166 -117.744734 130 5052ft 126kts
11-Jan-21 22:55 33.468459 -117.713631 130 5050ft 130kts
11-Jan-21 22:56 33.443265 -117.682276 130 5050ft 130kts
11-Jan-21 22:57 33.418002 -117.651217 130 5050ft 129kts
11-Jan-21 22:58 33.392891 -117.620573 130 5050ft 129kts
11-Jan-21 22:59 33.368079 -117.589644 129 5050ft 128kts
11-Jan-21 23:00 33.343524 -117.558853 129 5050ft 128kts
11-Jan-21 23:01 33.318893 -117.527953 129 5050ft 128kts
11-Jan-21 23:02 33.294363 -117.497163 129 5050ft 128kts
11-Jan-21 23:03 33.269799 -117.466310 129 5050ft 128kts
11-Jan-21 23:04 33.245266 -117.435417 129 5049ft 128kts
11-Jan-21 23:05 33.222240 -117.403074 129 5047ft 128kts
11-Jan-21 23:06 33.204603 -117.367449 96 4979ft 127kts
11-Jan-21 23:07 33.198382 -117.321399 98 4610ft 135kts
11-Jan-21 23:08 33.184010 -117.275792 110 4184ft 137kts
11-Jan-21 23:09 33.169100 -117.233486 111 3786ft 137kts
11-Jan-21 23:10 33.153778 -117.191337 111 3387ft 137kts
11-Jan-21 23:11 33.127482 -117.185635 258 2930ft 109kts
11-Jan-21 23:13 33.139510 -117.223554 283 1214ft 125kts
11-Jan-21 23:14 33.132649 -117.251832 260 765ft 75kts
11-Jan-21 23:15 33.128761 -117.276788 260 309ft 46kts
11-Jan-21 23:16 33.126425 -117.280051 317 309ft 2kts
11-Jan-21 23:17 33.126504 -117.280129 14 309ft 0kts
11-Jan-21 23:18 33.126504 -117.280129 14 309ft 0kts
11-Jan-21 23:19 33.126504 -117.280129 14 309ft 0kts
11-Jan-21 23:20 33.126504 -117.280129 14 309ft 0kts
11-Jan-21 23:21 33.126504 -117.280129 14 309ft 0kts
11-Jan-21 23:22 33.126504 -117.280129 14 309ft 0kts
11-Jan-21 23:23 33.126504 -117.280129 14 309ft 0kts
11-Jan-21 23:24 33.126800 -117.280083 3 309ft 4kts
11-Jan-21 23:25 33.127249 -117.280050 4 309ft 0kts
11-Jan-21 23:26 33.127923 -117.276896 79 309ft 18kts
11-Jan-21 23:27 33.128129 -117.275239 72 308ft 0kts
11-Jan-21 23:28 33.128375 -117.274510 18 307ft 0kts

Navigation Log

Ident Type
Flight plan parsing failed, navigation log unavailable